Time;durP1;ratioP1;P1;durP2;ratioP2;P2;SDS_P1;SDS_P2;PMS_P1;PMS_P2;Temp;Humidity;BMP_temperature;BMP_pressure;BME280_temperature;BME280_humidity;BME280_pressure;Samples;Min_cycle;Max_cycle;Signal;HPM_P1;HPM_P2
2023/10/27 00:01:30;;;;;;;5.03;2.67;;;;;;;;;;5052880;27;87596;-58
2023/10/27 00:04:00;;;;;;;6.37;3.50;;;;;;;;;;5048996;27;89607;-58
2023/10/27 00:06:32;;;;;;;6.13;3.33;;;;;;;;;;5056062;27;89101;-58
2023/10/27 00:09:01;;;;;;;3.70;2.67;;;;;;;;;;5054335;27;88806;-58
2023/10/27 00:11:29;;;;;;;5.90;2.67;;;;;;;;;;5054159;27;87934;-58
2023/10/27 00:13:58;;;;;;;2.73;2.13;;;;;;;;;;5045813;27;89494;-58
2023/10/27 00:16:26;;;;;;;4.37;2.90;;;;;;;;;;5049185;27;89079;-58
2023/10/27 00:18:54;;;;;;;4.40;3.10;;;;;;;;;;5055462;27;87311;-59
2023/10/27 00:21:24;;;;;;;3.33;2.77;;;;;;;;;;5057097;27;88052;-58
2023/10/27 00:23:53;;;;;;;4.20;2.70;;;;;;;;;;5059027;27;89738;-58
2023/10/27 00:26:21;;;;;;;4.67;2.53;;;;;;;;;;5059551;27;89199;-58
2023/10/27 00:28:50;;;;;;;3.53;2.73;;;;;;;;;;5059419;27;88100;-60
2023/10/27 00:31:18;;;;;;;4.30;2.83;;;;;;;;;;5058466;27;87707;-59
2023/10/27 00:33:47;;;;;;;4.10;3.03;;;;;;;;;;5058945;27;88550;-58
2023/10/27 00:36:15;;;;;;;3.27;2.30;;;;;;;;;;5056520;27;94146;-59
2023/10/27 00:38:47;;;;;;;5.83;2.33;;;;;;;;;;5056353;27;93830;-58
2023/10/27 00:41:16;;;;;;;3.50;2.30;;;;;;;;;;5056989;27;92201;-58
2023/10/27 00:43:44;;;;;;;2.53;2.10;;;;;;;;;;5056612;27;92145;-58
2023/10/27 00:46:12;;;;;;;5.13;2.57;;;;;;;;;;5055082;27;95160;-59
2023/10/27 00:48:41;;;;;;;3.57;2.50;;;;;;;;;;5056326;27;94389;-59
2023/10/27 00:51:11;;;;;;;2.67;2.27;;;;;;;;;;5056467;27;91980;-58
2023/10/27 00:53:39;;;;;;;3.63;2.47;;;;;;;;;;5056800;27;92077;-58
2023/10/27 00:56:09;;;;;;;8.30;3.67;;;;;;;;;;5056411;27;94168;-58
2023/10/27 00:58:38;;;;;;;4.10;2.10;;;;;;;;;;5051583;27;94022;-58
2023/10/27 01:01:07;;;;;;;4.40;3.30;;;;;;;;;;5056662;27;93749;-58
2023/10/27 01:03:35;;;;;;;7.87;3.03;;;;;;;;;;5056753;27;91379;-58
2023/10/27 01:06:03;;;;;;;5.10;3.27;;;;;;;;;;5055016;27;94083;-58
2023/10/27 01:08:32;;;;;;;4.07;3.20;;;;;;;;;;5056832;27;93822;-58
2023/10/27 01:11:00;;;;;;;4.77;3.20;;;;;;;;;;5059556;27;93028;-58
2023/10/27 01:13:30;;;;;;;4.33;2.90;;;;;;;;;;5059958;27;92045;-58
2023/10/27 01:15:59;;;;;;;4.23;3.13;;;;;;;;;;5059788;27;92970;-58
2023/10/27 01:18:27;;;;;;;5.13;3.10;;;;;;;;;;5057113;27;93612;-58
2023/10/27 01:20:56;;;;;;;6.17;3.40;;;;;;;;;;5060142;27;91856;-59
2023/10/27 01:23:26;;;;;;;5.07;3.30;;;;;;;;;;5059710;27;93824;-58
2023/10/27 01:25:54;;;;;;;7.10;4.10;;;;;;;;;;5059016;27;94194;-58
2023/10/27 01:28:23;;;;;;;4.40;3.70;;;;;;;;;;5059643;27;93843;-58
2023/10/27 01:30:51;;;;;;;5.20;3.00;;;;;;;;;;5059254;27;92211;-58
2023/10/27 01:33:21;;;;;;;4.87;3.40;;;;;;;;;;5059202;27;92094;-58
2023/10/27 01:35:50;;;;;;;4.90;2.83;;;;;;;;;;5059285;27;95106;-58
2023/10/27 01:38:18;;;;;;;4.00;2.90;;;;;;;;;;5057337;27;94708;-59
2023/10/27 01:40:48;;;;;;;7.37;3.30;;;;;;;;;;5059701;27;91853;-59
2023/10/27 01:43:16;;;;;;;5.93;3.97;;;;;;;;;;5059370;27;93796;-59
2023/10/27 01:45:44;;;;;;;5.33;3.47;;;;;;;;;;5059102;27;94134;-58
2023/10/27 01:48:13;;;;;;;4.87;3.50;;;;;;;;;;5059541;27;93805;-58
2023/10/27 01:50:41;;;;;;;7.37;3.60;;;;;;;;;;5059081;27;92064;-58
2023/10/27 01:53:10;;;;;;;5.30;3.17;;;;;;;;;;5059729;27;91413;-59
2023/10/27 01:55:38;;;;;;;4.03;3.33;;;;;;;;;;5058909;27;93065;-59
2023/10/27 01:58:08;;;;;;;4.30;3.07;;;;;;;;;;5059016;27;92901;-58
2023/10/27 02:00:36;;;;;;;4.43;3.47;;;;;;;;;;5059254;27;92709;-59
2023/10/27 02:03:05;;;;;;;5.03;3.13;;;;;;;;;;5059474;27;94241;-59
2023/10/27 02:05:34;;;;;;;6.53;3.70;;;;;;;;;;5058472;27;92724;-58
2023/10/27 02:08:04;;;;;;;4.63;3.90;;;;;;;;;;5058641;27;93565;-59
2023/10/27 02:10:32;;;;;;;6.13;3.40;;;;;;;;;;5058902;27;92009;-58
2023/10/27 02:13:01;;;;;;;5.83;3.23;;;;;;;;;;5058252;27;92082;-58
2023/10/27 02:15:31;;;;;;;4.67;3.33;;;;;;;;;;5058980;27;94199;-59
2023/10/27 02:17:59;;;;;;;4.63;3.13;;;;;;;;;;5058314;27;93882;-59
2023/10/27 02:20:29;;;;;;;3.27;2.90;;;;;;;;;;5059081;27;93367;-59
2023/10/27 02:22:58;;;;;;;4.70;2.87;;;;;;;;;;5058665;27;92129;-58
2023/10/27 02:25:26;;;;;;;4.47;3.10;;;;;;;;;;5055366;27;94992;-58
2023/10/27 02:27:55;;;;;;;8.97;2.73;;;;;;;;;;5058302;27;94851;-59
2023/10/27 02:30:23;;;;;;;4.23;2.60;;;;;;;;;;5058591;27;92120;-60
2023/10/27 02:32:53;;;;;;;4.47;2.80;;;;;;;;;;5056452;27;92504;-59
2023/10/27 02:35:22;;;;;;;4.83;2.57;;;;;;;;;;5058569;27;93981;-58
2023/10/27 02:37:51;;;;;;;4.87;2.90;;;;;;;;;;5058088;27;93819;-58
2023/10/27 02:40:19;;;;;;;3.27;2.33;;;;;;;;;;5053151;27;92272;-58
2023/10/27 02:42:48;;;;;;;5.63;3.03;;;;;;;;;;5055900;27;93356;-58
2023/10/27 02:45:16;;;;;;;5.97;3.70;;;;;;;;;;5052781;27;94052;-57
2023/10/27 02:47:45;;;;;;;4.07;2.63;;;;;;;;;;5054605;27;93885;-58
2023/10/27 02:50:15;;;;;;;3.90;2.60;;;;;;;;;;5054850;27;93039;-58
2023/10/27 02:52:43;;;;;;;3.90;2.90;;;;;;;;;;5052665;27;92109;-58
2023/10/27 02:55:11;;;;;;;4.00;2.73;;;;;;;;;;5054950;27;94261;-58
2023/10/27 02:57:40;;;;;;;2.80;2.60;;;;;;;;;;5054708;27;93852;-58
2023/10/27 03:00:09;;;;;;;3.00;2.27;;;;;;;;;;5055482;27;92050;-58
2023/10/27 03:02:37;;;;;;;4.17;3.03;;;;;;;;;;5054837;27;92070;-58
2023/10/27 03:05:06;;;;;;;4.57;2.97;;;;;;;;;;5054783;27;93089;-58
2023/10/27 03:07:36;;;;;;;5.77;3.33;;;;;;;;;;5055566;27;94035;-58
2023/10/27 03:10:04;;;;;;;2.87;2.17;;;;;;;;;;5055390;27;92125;-58
2023/10/27 03:12:33;;;;;;;7.03;2.93;;;;;;;;;;5055373;27;92602;-58
2023/10/27 03:15:01;;;;;;;4.07;2.63;;;;;;;;;;5053899;27;95424;-58
2023/10/27 03:17:30;;;;;;;4.87;3.17;;;;;;;;;;5054692;27;94740;-58
2023/10/27 03:19:59;;;;;;;3.30;3.00;;;;;;;;;;5055079;27;92584;-58
2023/10/27 03:22:28;;;;;;;4.77;3.30;;;;;;;;;;5055157;27;92399;-58
2023/10/27 03:24:58;;;;;;;8.33;3.07;;;;;;;;;;5054349;27;94220;-58
2023/10/27 03:27:27;;;;;;;3.67;3.20;;;;;;;;;;5054354;27;93900;-58
2023/10/27 03:29:55;;;;;;;2.70;2.47;;;;;;;;;;5055008;27;92120;-58
2023/10/27 03:32:23;;;;;;;3.83;2.57;;;;;;;;;;5051925;27;91563;-58
2023/10/27 03:34:52;;;;;;;4.33;2.03;;;;;;;;;;5055142;27;94168;-58
2023/10/27 03:37:20;;;;;;;2.60;2.20;;;;;;;;;;5054359;27;92618;-58
2023/10/27 03:39:49;;;;;;;3.80;2.57;;;;;;;;;;5052070;27;92911;-58
2023/10/27 03:42:19;;;;;;;6.63;3.73;;;;;;;;;;5055150;27;93690;-58
2023/10/27 03:44:47;;;;;;;4.90;2.67;;;;;;;;;;5054117;27;94146;-58
2023/10/27 03:47:16;;;;;;;4.40;2.87;;;;;;;;;;5054667;27;94235;-58
2023/10/27 03:49:44;;;;;;;4.17;2.60;;;;;;;;;;5054415;27;92675;-58
2023/10/27 03:52:13;;;;;;;10.03;2.03;;;;;;;;;;5054335;27;92172;-58
2023/10/27 03:54:41;;;;;;;3.13;2.50;;;;;;;;;;5054503;27;94193;-58
2023/10/27 03:57:09;;;;;;;3.53;3.03;;;;;;;;;;5054545;27;93769;-58
2023/10/27 03:59:39;;;;;;;4.17;2.67;;;;;;;;;;5052476;27;92001;-58
2023/10/27 04:02:08;;;;;;;4.23;2.50;;;;;;;;;;5053586;27;92104;-58
2023/10/27 04:04:36;;;;;;;3.83;2.37;;;;;;;;;;5053570;27;95077;-57
2023/10/27 04:07:04;;;;;;;5.97;2.53;;;;;;;;;;5051697;27;94864;-58
2023/10/27 04:09:33;;;;;;;5.77;2.87;;;;;;;;;;5054423;27;92172;-58
2023/10/27 04:12:01;;;;;;;2.37;2.13;;;;;;;;;;5053719;27;92716;-58
2023/10/27 04:14:30;;;;;;;4.53;3.00;;;;;;;;;;5053395;27;93209;-58
2023/10/27 04:17:00;;;;;;;3.33;2.20;;;;;;;;;;5051522;27;93824;-58
2023/10/27 04:19:28;;;;;;;4.23;2.40;;;;;;;;;;5053344;27;92403;-58
2023/10/27 04:21:56;;;;;;;3.17;2.23;;;;;;;;;;5056895;27;91279;-58
2023/10/27 04:24:25;;;;;;;3.10;2.13;;;;;;;;;;5056430;27;94126;-58
2023/10/27 04:26:53;;;;;;;3.60;2.40;;;;;;;;;;5053936;27;93885;-58
2023/10/27 04:29:22;;;;;;;3.80;2.30;;;;;;;;;;5056291;27;92988;-58
2023/10/27 04:31:50;;;;;;;3.40;2.33;;;;;;;;;;5056071;27;92727;-58
2023/10/27 04:34:20;;;;;;;2.90;2.60;;;;;;;;;;5053944;27;94116;-58
2023/10/27 04:36:49;;;;;;;5.13;2.63;;;;;;;;;;5055551;27;93834;-58
2023/10/27 04:39:17;;;;;;;2.90;2.07;;;;;;;;;;5056891;27;92098;-58
2023/10/27 04:41:45;;;;;;;4.27;2.23;;;;;;;;;;5054381;27;92061;-58
2023/10/27 04:44:14;;;;;;;4.63;2.50;;;;;;;;;;5059161;27;92939;-58
2023/10/27 04:46:42;;;;;;;2.23;2.03;;;;;;;;;;5060244;27;92701;-58
2023/10/27 04:49:10;;;;;;;4.27;2.43;;;;;;;;;;5057712;27;92033;-58
2023/10/27 04:51:40;;;;;;;2.93;2.27;;;;;;;;;;5058827;27;92368;-58
2023/10/27 04:54:09;;;;;;;4.47;2.07;;;;;;;;;;5054360;27;95104;-58
2023/10/27 04:56:37;;;;;;;3.47;2.10;;;;;;;;;;5056121;27;94717;-58
2023/10/27 04:59:05;;;;;;;2.43;1.77;;;;;;;;;;5057741;27;92521;-58
2023/10/27 05:01:34;;;;;;;4.03;1.50;;;;;;;;;;5055550;27;92162;-58
2023/10/27 05:04:02;;;;;;;2.73;1.73;;;;;;;;;;5057078;27;94077;-58
2023/10/27 05:06:32;;;;;;;3.20;2.37;;;;;;;;;;5054739;27;94167;-58
2023/10/27 05:09:02;;;;;;;3.67;2.33;;;;;;;;;;5056926;27;92033;-56
2023/10/27 05:11:30;;;;;;;3.20;1.97;;;;;;;;;;5059895;27;91410;-56
2023/10/27 05:13:59;;;;;;;2.30;2.00;;;;;;;;;;5060424;27;93109;-57
2023/10/27 05:16:27;;;;;;;2.50;2.30;;;;;;;;;;5059851;27;96654;-56
2023/10/27 05:18:56;;;;;;;3.53;1.97;;;;;;;;;;5060232;27;92837;-57
2023/10/27 05:21:27;;;;;;;2.60;2.23;;;;;;;;;;5059142;27;92053;-56
2023/10/27 05:23:56;;;;;;;3.27;2.03;;;;;;;;;;5054042;27;93056;-57
2023/10/27 05:26:26;;;;;;;3.33;2.17;;;;;;;;;;5058996;27;93742;-57
2023/10/27 05:28:55;;;;;;;3.37;2.30;;;;;;;;;;5057729;27;91947;-57
2023/10/27 05:31:27;;;;;;;5.33;2.60;;;;;;;;;;5059353;27;91913;-57
2023/10/27 05:33:57;;;;;;;2.07;1.87;;;;;;;;;;5059381;27;93644;-57
2023/10/27 05:36:26;;;;;;;3.90;2.37;;;;;;;;;;5059210;27;92702;-57
2023/10/27 05:38:54;;;;;;;10.43;2.17;;;;;;;;;;5059898;27;92098;-57
2023/10/27 05:41:23;;;;;;;2.57;2.37;;;;;;;;;;5059172;27;92234;-57
2023/10/27 05:43:54;;;;;;;2.37;2.17;;;;;;;;;;5059076;27;95083;-57
2023/10/27 05:46:23;;;;;;;2.40;2.10;;;;;;;;;;5058903;27;92350;-57
2023/10/27 05:48:51;;;;;;;6.37;2.07;;;;;;;;;;5059553;27;94070;-57
2023/10/27 05:51:20;;;;;;;4.13;2.83;;;;;;;;;;5059506;27;92009;-56
2023/10/27 05:53:48;;;;;;;4.30;2.47;;;;;;;;;;5058215;27;94269;-57
2023/10/27 05:56:16;;;;;;;3.03;2.17;;;;;;;;;;5056279;27;93821;-57
2023/10/27 05:58:46;;;;;;;3.97;2.60;;;;;;;;;;5059507;27;92071;-56
2023/10/27 06:01:17;;;;;;;4.40;2.10;;;;;;;;;;5060299;27;91394;-57
2023/10/27 06:03:45;;;;;;;4.20;2.87;;;;;;;;;;5059040;27;94116;-56
2023/10/27 06:06:14;;;;;;;5.37;2.47;;;;;;;;;;5058991;27;92910;-57
2023/10/27 06:08:44;;;;;;;3.20;2.37;;;;;;;;;;5058647;27;93057;-57
2023/10/27 06:11:12;;;;;;;3.27;2.10;;;;;;;;;;5059593;27;92123;-57
2023/10/27 06:13:41;;;;;;;6.27;2.43;;;;;;;;;;5058949;27;94413;-55
2023/10/27 06:16:10;;;;;;;4.10;3.00;;;;;;;;;;5059035;27;93797;-57
2023/10/27 06:18:40;;;;;;;4.60;2.67;;;;;;;;;;5059368;27;92514;-57
2023/10/27 06:21:08;;;;;;;4.40;2.50;;;;;;;;;;5059292;27;92207;-57
2023/10/27 06:23:37;;;;;;;3.00;2.13;;;;;;;;;;5058809;27;94137;-57
2023/10/27 06:26:05;;;;;;;3.37;2.60;;;;;;;;;;5059189;27;92789;-58
2023/10/27 06:28:35;;;;;;;3.37;2.83;;;;;;;;;;5058988;27;92025;-57
2023/10/27 06:31:03;;;;;;;2.53;2.07;;;;;;;;;;5055902;27;92088;-58
2023/10/27 06:33:32;;;;;;;3.37;2.43;;;;;;;;;;5058033;27;94685;-58
2023/10/27 06:36:02;;;;;;;3.80;2.90;;;;;;;;;;5058738;27;94847;-57
2023/10/27 06:38:30;;;;;;;3.67;2.53;;;;;;;;;;5058814;27;91963;-57
2023/10/27 06:40:59;;;;;;;3.63;2.30;;;;;;;;;;5056539;27;92062;-57
2023/10/27 06:43:28;;;;;;;5.13;3.53;;;;;;;;;;5058465;27;94249;-55
2023/10/27 06:45:56;;;;;;;2.87;2.10;;;;;;;;;;5057350;27;93912;-59
2023/10/27 06:48:24;;;;;;;4.43;2.40;;;;;;;;;;5058744;27;91767;-59
2023/10/27 06:50:53;;;;;;;4.60;3.03;;;;;;;;;;5058986;27;91365;-59
2023/10/27 06:53:23;;;;;;;4.33;2.33;;;;;;;;;;5058150;27;94282;-59
2023/10/27 06:55:51;;;;;;;3.77;2.50;;;;;;;;;;5057735;27;93751;-59
2023/10/27 06:58:18;;;;;;;3.77;2.77;;;;;;;;;;5057837;27;94888;-59
2023/10/27 07:00:47;;;;;;;4.40;3.00;;;;;;;;;;5058590;27;91991;-59
2023/10/27 07:03:15;;;;;;;5.50;3.50;;;;;;;;;;5057362;27;94156;-59
2023/10/27 07:05:59;;;;;;;3.03;2.63;;;;;;;;;;5054733;27;93738;-59
2023/10/27 07:08:30;;;;;;;4.83;3.10;;;;;;;;;;5058628;27;93632;-59
2023/10/27 07:10:59;;;;;;;7.20;3.73;;;;;;;;;;5054751;27;92304;-57
2023/10/27 07:13:27;;;;;;;4.97;3.17;;;;;;;;;;5056578;27;94274;-59
2023/10/27 07:15:56;;;;;;;4.17;2.93;;;;;;;;;;5055193;27;95126;-59
2023/10/27 07:18:24;;;;;;;6.03;4.13;;;;;;;;;;5057995;27;92097;-59
2023/10/27 07:20:53;;;;;;;5.40;3.47;;;;;;;;;;5057860;27;92130;-59
2023/10/27 07:23:22;;;;;;;4.37;3.13;;;;;;;;;;5057351;27;95051;-59
2023/10/27 07:25:52;;;;;;;6.07;4.17;;;;;;;;;;5059745;27;94807;-59
2023/10/27 07:28:21;;;;;;;5.73;3.90;;;;;;;;;;5056603;27;93084;-59
2023/10/27 07:30:49;;;;;;;5.10;3.73;;;;;;;;;;5056526;27;92133;-58
2023/10/27 07:33:18;;;;;;;5.53;4.37;;;;;;;;;;5054594;27;94052;-59
2023/10/27 07:35:47;;;;;;;9.47;4.60;;;;;;;;;;5057169;27;93746;-60
2023/10/27 07:38:16;;;;;;;9.03;4.80;;;;;;;;;;5055152;27;92145;-62
2023/10/27 07:40:44;;;;;;;9.27;4.63;;;;;;;;;;5057443;27;91592;-59
2023/10/27 07:43:14;;;;;;;6.80;4.77;;;;;;;;;;5057689;27;93137;-60
2023/10/27 07:45:46;;;;;;;7.70;3.93;;;;;;;;;;5055949;27;92777;-59
2023/10/27 07:48:14;;;;;;;5.03;3.83;;;;;;;;;;5055910;27;93229;-60
2023/10/27 07:50:42;;;;;;;10.23;5.10;;;;;;;;;;5057691;27;92058;-61
2023/10/27 07:53:11;;;;;;;6.73;4.20;;;;;;;;;;5057379;27;94171;-62
2023/10/27 07:55:39;;;;;;;7.80;4.93;;;;;;;;;;5056505;27;93741;-60
2023/10/27 07:58:08;;;;;;;8.03;5.17;;;;;;;;;;5056853;27;92134;-60
2023/10/27 08:00:38;;;;;;;9.60;5.87;;;;;;;;;;5054950;27;92232;-53
2023/10/27 08:03:06;;;;;;;8.77;5.83;;;;;;;;;;5057803;27;93017;-53
2023/10/27 08:05:35;;;;;;;11.13;5.77;;;;;;;;;;5057318;27;93745;-54
2023/10/27 08:08:03;;;;;;;8.60;6.33;;;;;;;;;;5057689;27;91944;-53
2023/10/27 08:10:32;;;;;;;7.40;5.40;;;;;;;;;;5057150;27;92242;-53
2023/10/27 08:13:00;;;;;;;10.97;5.73;;;;;;;;;;5057182;27;94016;-53
2023/10/27 08:15:29;;;;;;;11.70;6.23;;;;;;;;;;5057251;27;94827;-52
2023/10/27 08:17:59;;;;;;;12.50;6.03;;;;;;;;;;5054966;27;91997;-54
2023/10/27 08:20:27;;;;;;;13.03;7.93;;;;;;;;;;5057303;27;92077;-53
2023/10/27 08:22:55;;;;;;;14.07;7.20;;;;;;;;;;5056754;27;94198;-53
2023/10/27 08:25:24;;;;;;;10.07;6.03;;;;;;;;;;5057121;27;93785;-54
2023/10/27 08:27:52;;;;;;;10.27;6.27;;;;;;;;;;5058000;27;91887;-53
2023/10/27 08:30:21;;;;;;;12.07;6.83;;;;;;;;;;5056838;27;91377;-53
2023/10/27 08:32:49;;;;;;;11.00;7.50;;;;;;;;;;5057279;27;94159;-53
2023/10/27 08:35:19;;;;;;;11.87;7.33;;;;;;;;;;5053681;27;93816;-53
2023/10/27 08:37:47;;;;;;;12.43;8.33;;;;;;;;;;5056390;27;93085;-53
2023/10/27 08:40:16;;;;;;;7.83;5.93;;;;;;;;;;5057323;27;92032;-53
2023/10/27 08:42:45;;;;;;;13.53;6.87;;;;;;;;;;5057165;27;93572;-53
2023/10/27 08:45:14;;;;;;;11.17;7.53;;;;;;;;;;5057065;27;93912;-53
2023/10/27 08:47:42;;;;;;;13.00;7.80;;;;;;;;;;5057350;27;92093;-53
2023/10/27 08:50:11;;;;;;;13.93;7.97;;;;;;;;;;5057172;27;91999;-53
2023/10/27 08:52:41;;;;;;;13.17;7.60;;;;;;;;;;5057388;27;93067;-53
2023/10/27 08:55:10;;;;;;;13.83;8.37;;;;;;;;;;5057320;27;93081;-52
2023/10/27 08:57:38;;;;;;;16.10;8.60;;;;;;;;;;5056930;27;92076;-53
2023/10/27 09:00:07;;;;;;;10.70;7.97;;;;;;;;;;5056870;27;92086;-53
2023/10/27 09:02:36;;;;;;;11.47;7.00;;;;;;;;;;5056187;27;93647;-53
2023/10/27 09:05:04;;;;;;;13.93;8.33;;;;;;;;;;5056154;27;93910;-53
2023/10/27 09:07:33;;;;;;;13.33;8.57;;;;;;;;;;5056415;27;91970;-52
2023/10/27 09:10:03;;;;;;;21.53;9.03;;;;;;;;;;5056860;27;93663;-52
2023/10/27 09:12:34;;;;;;;12.20;8.07;;;;;;;;;;5056380;27;93385;-53
2023/10/27 09:15:04;;;;;;;15.70;9.03;;;;;;;;;;5056263;27;93879;-53
2023/10/27 09:17:32;;;;;;;13.40;7.97;;;;;;;;;;5056050;27;91924;-52
2023/10/27 09:20:04;;;;;;;14.87;8.90;;;;;;;;;;5054066;27;91640;-53
2023/10/27 09:22:33;;;;;;;15.13;9.30;;;;;;;;;;5057288;27;94098;-53
2023/10/27 09:25:18;;;;;;;15.50;9.60;;;;;;;;;;5053480;27;93795;-52
2023/10/27 09:27:46;;;;;;;14.10;8.33;;;;;;;;;;5057038;27;93026;-53
2023/10/27 09:30:14;;;;;;;16.00;8.60;;;;;;;;;;5058167;27;92049;-53
2023/10/27 09:32:43;;;;;;;12.33;7.77;;;;;;;;;;5059762;27;93089;-52
2023/10/27 09:35:13;;;;;;;15.57;8.77;;;;;;;;;;5058752;27;93960;-53
2023/10/27 09:37:42;;;;;;;12.67;8.07;;;;;;;;;;5054144;27;92096;-52
2023/10/27 09:40:11;;;;;;;13.73;8.07;;;;;;;;;;5060967;27;92057;-52
2023/10/27 09:42:41;;;;;;;17.63;9.20;;;;;;;;;;5060420;27;93770;-53
2023/10/27 09:45:11;;;;;;;13.57;8.77;;;;;;;;;;5060479;27;92762;-54
2023/10/27 09:47:50;;;;;;;14.50;8.67;;;;;;;;;;5060679;27;93535;-53
2023/10/27 09:50:20;;;;;;;20.27;8.77;;;;;;;;;;5060585;27;92077;-52
2023/10/27 09:52:48;;;;;;;11.07;7.67;;;;;;;;;;5058754;27;94903;-53
2023/10/27 09:55:18;;;;;;;13.17;7.37;;;;;;;;;;5060169;27;93326;-54
2023/10/27 09:57:48;;;;;;;14.10;8.90;;;;;;;;;;5060390;27;92100;-53
2023/10/27 10:00:18;;;;;;;14.83;9.57;;;;;;;;;;5058439;27;92059;-52
2023/10/27 10:02:46;;;;;;;12.00;8.37;;;;;;;;;;5050744;27;94628;-55
2023/10/27 10:05:15;;;;;;;16.13;9.33;;;;;;;;;;5048654;27;93821;-53
2023/10/27 10:07:44;;;;;;;13.47;9.07;;;;;;;;;;5046614;27;91928;-53
2023/10/27 10:10:19;;;;;;;14.53;8.70;;;;;;;;;;5056978;27;91322;-53
2023/10/27 10:13:02;;;;;;;20.33;10.40;;;;;;;;;;5059818;27;94215;-54
2023/10/27 10:15:31;;;;;;;14.20;8.20;;;;;;;;;;5059278;27;92997;-52
2023/10/27 10:17:59;;;;;;;14.00;8.27;;;;;;;;;;5059182;27;93180;-53
2023/10/27 10:20:47;;;;;;;15.10;10.07;;;;;;;;;;5058614;27;92081;-53
2023/10/27 10:23:15;;;;;;;15.37;8.93;;;;;;;;;;5059003;27;93940;-53
2023/10/27 10:25:50;;;;;;;13.13;8.50;;;;;;;;;;5059464;27;94068;-53
2023/10/27 10:28:27;;;;;;;12.33;7.97;;;;;;;;;;5059774;27;91766;-53
2023/10/27 10:31:14;;;;;;;12.93;8.50;;;;;;;;;;5058728;27;92062;-53
2023/10/27 10:33:45;;;;;;;12.60;8.00;;;;;;;;;;5059294;27;94272;-53
2023/10/27 10:36:29;;;;;;;17.03;8.63;;;;;;;;;;5059010;27;93892;-53
2023/10/27 10:38:57;;;;;;;18.03;9.10;;;;;;;;;;5059704;27;91898;-52
2023/10/27 10:41:44;;;;;;;10.77;7.03;;;;;;;;;;5059032;27;92087;-54
2023/10/27 10:44:14;;;;;;;13.33;8.17;;;;;;;;;;5058427;27;95109;-54
2023/10/27 10:46:43;;;;;;;15.00;7.60;;;;;;;;;;5058869;27;94811;-54
2023/10/27 10:49:11;;;;;;;12.43;8.87;;;;;;;;;;5059012;27;92110;-54
2023/10/27 10:51:40;;;;;;;13.67;8.57;;;;;;;;;;5059334;27;91945;-53
2023/10/27 10:54:12;;;;;;;12.13;8.37;;;;;;;;;;5058732;27;92157;-53
2023/10/27 10:56:41;;;;;;;16.43;9.80;;;;;;;;;;5045787;27;93718;-53
2023/10/27 10:59:09;;;;;;;17.83;9.23;;;;;;;;;;5059364;27;92006;-52
2023/10/27 11:01:39;;;;;;;16.40;8.47;;;;;;;;;;5059563;27;91302;-53
2023/10/27 11:04:08;;;;;;;14.47;8.60;;;;;;;;;;5056192;27;94299;-53
2023/10/27 11:06:36;;;;;;;16.00;8.67;;;;;;;;;;5056916;27;93728;-52
2023/10/27 11:09:05;;;;;;;14.20;8.80;;;;;;;;;;5058910;27;92844;-53
2023/10/27 11:11:35;;;;;;;16.23;9.73;;;;;;;;;;5059210;27;92035;-53
2023/10/27 11:14:15;;;;;;;11.37;8.03;;;;;;;;;;5059159;27;93171;-53
2023/10/27 11:16:45;;;;;;;10.67;7.27;;;;;;;;;;5058906;27;93889;-54
2023/10/27 11:19:16;;;;;;;12.60;7.80;;;;;;;;;;5059443;27;92033;-56
2023/10/27 11:21:44;;;;;;;11.40;7.23;;;;;;;;;;5058933;27;91971;-52
2023/10/27 11:24:14;;;;;;;11.67;6.13;;;;;;;;;;5053842;27;93977;-53
2023/10/27 11:26:43;;;;;;;9.30;6.17;;;;;;;;;;5058857;27;93794;-53
2023/10/27 11:29:11;;;;;;;11.00;6.73;;;;;;;;;;5059221;27;92042;-52
2023/10/27 11:31:47;;;;;;;11.27;6.07;;;;;;;;;;5058317;27;91960;-53
2023/10/27 11:34:20;;;;;;;12.43;5.37;;;;;;;;;;5058105;27;95318;-53
2023/10/27 11:36:59;;;;;;;10.83;6.03;;;;;;;;;;5058647;27;95206;-53
2023/10/27 11:39:27;;;;;;;11.63;6.23;;;;;;;;;;5059068;27;91938;-53
2023/10/27 11:41:58;;;;;;;10.70;6.33;;;;;;;;;;5058552;27;92148;-53
2023/10/27 11:44:26;;;;;;;10.03;6.00;;;;;;;;;;5058693;27;94288;-53
2023/10/27 11:46:56;;;;;;;9.37;5.53;;;;;;;;;;5058288;27;92035;-53
2023/10/27 11:49:25;;;;;;;11.00;5.83;;;;;;;;;;5058723;27;91933;-54
2023/10/27 11:51:54;;;;;;;12.63;6.00;;;;;;;;;;5058039;27;91454;-53
2023/10/27 11:54:23;;;;;;;10.33;6.17;;;;;;;;;;5058056;27;94070;-52
2023/10/27 11:56:51;;;;;;;9.73;5.43;;;;;;;;;;5057891;27;92795;-52
2023/10/27 11:59:24;;;;;;;8.97;5.33;;;;;;;;;;5057769;27;92889;-53
2023/10/27 12:01:53;;;;;;;8.20;4.93;;;;;;;;;;5058416;27;92050;-53
2023/10/27 12:04:23;;;;;;;10.23;5.70;;;;;;;;;;5058000;27;93305;-52
2023/10/27 12:06:53;;;;;;;8.63;4.87;;;;;;;;;;5057790;27;92763;-54
2023/10/27 12:09:22;;;;;;;8.57;4.93;;;;;;;;;;5054125;27;92233;-53
2023/10/27 12:11:51;;;;;;;6.43;4.80;;;;;;;;;;5056534;27;94227;-53
2023/10/27 12:14:19;;;;;;;7.10;5.13;;;;;;;;;;5052875;27;94179;-54
2023/10/27 12:16:49;;;;;;;7.13;4.23;;;;;;;;;;5058048;27;93697;-53
2023/10/27 12:19:17;;;;;;;7.77;5.30;;;;;;;;;;5053503;27;92166;-53
2023/10/27 12:21:48;;;;;;;7.60;5.27;;;;;;;;;;5055083;27;92167;-52
2023/10/27 12:24:16;;;;;;;6.53;4.67;;;;;;;;;;5057216;27;95144;-52
2023/10/27 12:26:45;;;;;;;8.63;4.50;;;;;;;;;;5057756;27;93625;-52
2023/10/27 12:29:14;;;;;;;8.97;5.33;;;;;;;;;;5058634;27;92030;-52
2023/10/27 12:31:42;;;;;;;5.60;4.27;;;;;;;;;;5057263;27;92101;-52
2023/10/27 12:34:11;;;;;;;4.87;3.90;;;;;;;;;;5057570;27;94250;-53
2023/10/27 12:36:39;;;;;;;6.43;4.00;;;;;;;;;;5050723;27;93838;-53
2023/10/27 12:39:10;;;;;;;7.77;4.47;;;;;;;;;;5037786;27;95231;-53
2023/10/27 12:41:42;;;;;;;5.17;3.83;;;;;;;;;;5034807;27;93287;-52
2023/10/27 12:44:11;;;;;;;7.27;4.27;;;;;;;;;;5037044;27;94102;-52
2023/10/27 12:46:39;;;;;;;5.53;3.83;;;;;;;;;;5027343;27;95752;-53
2023/10/27 12:49:08;;;;;;;6.53;4.40;;;;;;;;;;5038679;27;96167;-51
2023/10/27 12:51:38;;;;;;;6.23;4.50;;;;;;;;;;5029789;27;96408;-52
2023/10/27 12:54:08;;;;;;;6.90;3.53;;;;;;;;;;5030799;27;95158;-52
2023/10/27 12:56:38;;;;;;;4.23;3.03;;;;;;;;;;5047644;27;93972;-53
2023/10/27 12:59:06;;;;;;;4.10;3.40;;;;;;;;;;5043234;27;94627;-51
2023/10/27 13:01:34;;;;;;;5.77;4.30;;;;;;;;;;5049572;27;92838;-52
2023/10/27 13:04:03;;;;;;;4.77;3.60;;;;;;;;;;5057503;27;92103;-51
2023/10/27 13:06:31;;;;;;;6.33;3.47;;;;;;;;;;5060586;27;93904;-53
2023/10/27 13:09:00;;;;;;;6.83;4.10;;;;;;;;;;5054541;27;92138;-53
2023/10/27 13:11:28;;;;;;;5.97;3.53;;;;;;;;;;5060712;27;92687;-52
2023/10/27 13:13:58;;;;;;;3.80;3.10;;;;;;;;;;5056052;27;94194;-51
2023/10/27 13:16:27;;;;;;;5.07;3.07;;;;;;;;;;5058591;27;94803;-51
2023/10/27 13:18:55;;;;;;;4.90;3.77;;;;;;;;;;5050054;27;92420;-52
2023/10/27 13:21:24;;;;;;;5.53;3.27;;;;;;;;;;5050898;27;92061;-52
2023/10/27 13:23:52;;;;;;;3.73;3.13;;;;;;;;;;5052945;27;94217;-53
2023/10/27 13:26:20;;;;;;;3.90;3.00;;;;;;;;;;5060179;27;93813;-53
2023/10/27 13:28:49;;;;;;;5.77;3.43;;;;;;;;;;5060556;27;92134;-53
2023/10/27 13:31:21;;;;;;;4.37;3.23;;;;;;;;;;5046129;27;91458;-52
2023/10/27 13:33:50;;;;;;;6.70;2.73;;;;;;;;;;5059965;27;94208;-52
2023/10/27 13:36:19;;;;;;;7.27;3.40;;;;;;;;;;5059236;27;94189;-52
2023/10/27 13:38:47;;;;;;;5.93;3.10;;;;;;;;;;5056272;27;93063;-52
2023/10/27 13:41:19;;;;;;;6.90;2.90;;;;;;;;;;5060121;27;92184;-53
2023/10/27 13:43:47;;;;;;;4.00;2.57;;;;;;;;;;5058076;27;94295;-53
2023/10/27 13:46:15;;;;;;;7.20;3.50;;;;;;;;;;5056957;27;93965;-53
2023/10/27 13:48:45;;;;;;;4.43;3.53;;;;;;;;;;5056950;27;92156;-52
2023/10/27 13:51:15;;;;;;;4.60;3.37;;;;;;;;;;5055202;27;92317;-53
2023/10/27 13:53:44;;;;;;;4.33;3.13;;;;;;;;;;5054926;27;94173;-53
2023/10/27 13:56:14;;;;;;;6.73;3.43;;;;;;;;;;5054181;27;93826;-51
2023/10/27 13:58:45;;;;;;;6.80;3.40;;;;;;;;;;5056411;27;92031;-53
2023/10/27 14:01:14;;;;;;;5.63;3.57;;;;;;;;;;5056277;27;92403;-54
2023/10/27 14:03:43;;;;;;;6.73;3.73;;;;;;;;;;5055987;27;95361;-52
2023/10/27 14:06:13;;;;;;;11.17;3.43;;;;;;;;;;5044824;27;94537;-53
2023/10/27 14:08:42;;;;;;;4.40;2.67;;;;;;;;;;5046499;27;92117;-53
2023/10/27 14:11:10;;;;;;;5.10;3.23;;;;;;;;;;5045804;27;92684;-53
2023/10/27 14:13:39;;;;;;;5.03;3.37;;;;;;;;;;5036249;27;94748;-53
2023/10/27 14:16:10;;;;;;;4.57;3.43;;;;;;;;;;5053809;27;93058;-53
2023/10/27 14:18:39;;;;;;;7.00;3.50;;;;;;;;;;5056410;27;92074;-53
2023/10/27 14:21:08;;;;;;;5.93;3.30;;;;;;;;;;5055798;27;91414;-52
2023/10/27 14:23:38;;;;;;;7.43;4.07;;;;;;;;;;5055979;27;94181;-53
2023/10/27 14:26:11;;;;;;;7.17;4.13;;;;;;;;;;5056137;27;92939;-52
2023/10/27 14:28:41;;;;;;;7.57;4.30;;;;;;;;;;5054571;27;92941;-52
2023/10/27 14:31:10;;;;;;;7.03;4.03;;;;;;;;;;5049646;27;92583;-53
2023/10/27 14:33:39;;;;;;;8.10;4.60;;;;;;;;;;5055117;27;93323;-53
2023/10/27 14:36:08;;;;;;;6.03;4.10;;;;;;;;;;5055943;27;92753;-53
2023/10/27 14:38:38;;;;;;;8.57;4.57;;;;;;;;;;5055827;27;92174;-52
2023/10/27 14:41:09;;;;;;;6.30;3.93;;;;;;;;;;5049436;27;92123;-53
2023/10/27 14:43:38;;;;;;;6.30;4.13;;;;;;;;;;5054665;27;94224;-54
2023/10/27 14:46:07;;;;;;;8.00;4.53;;;;;;;;;;5052578;27;92882;-52
2023/10/27 14:48:37;;;;;;;6.63;4.43;;;;;;;;;;5056452;27;92092;-53
2023/10/27 14:51:10;;;;;;;7.90;4.70;;;;;;;;;;5053783;27;93013;-53
2023/10/27 14:53:39;;;;;;;6.73;4.40;;;;;;;;;;5055681;27;94905;-54